createdAt,value
2018-12-24T00:05:40.010Z,0.57
2018-12-24T00:08:13.715Z,0.20
2018-12-24T00:11:05.815Z,0.40
2018-12-24T00:14:03.928Z,0.30
2018-12-24T00:17:01.045Z,0.13
2018-12-24T00:19:33.001Z,0.80
2018-12-24T00:22:25.269Z,0.20
2018-12-24T00:24:59.455Z,0.20
2018-12-24T00:27:50.930Z,0.60
2018-12-24T00:30:23.525Z,2.33
2018-12-24T00:33:15.651Z,0.20
2018-12-24T00:35:47.859Z,0.20
2018-12-24T00:38:20.580Z,0.40
2018-12-24T00:40:53.420Z,0.10
2018-12-24T00:43:28.609Z,0.30
2018-12-24T00:46:00.524Z,0.10
2018-12-24T00:51:46.855Z,3.30
2018-12-24T00:54:22.729Z,3.03
2018-12-24T00:57:14.392Z,0.20
2018-12-24T00:59:51.885Z,0.17
2018-12-24T01:02:59.214Z,0.30
2018-12-24T01:11:55.192Z,0.27
2018-12-24T01:15:16.395Z,1.47
2018-12-24T01:18:28.995Z,0.30
2018-12-24T01:21:08.972Z,0.40
2018-12-24T01:32:34.535Z,0.20
2018-12-24T01:41:05.895Z,0.30
2018-12-24T01:49:00.243Z,0.23
2018-12-24T01:54:48.586Z,0.30
2018-12-24T01:57:43.846Z,0.60
2018-12-24T02:09:13.956Z,0.20
2018-12-24T02:11:49.543Z,0.43
2018-12-24T02:17:14.844Z,0.30
2018-12-24T02:19:47.222Z,0.80
2018-12-24T02:22:20.864Z,1.50
2018-12-24T02:24:53.484Z,1.93
2018-12-24T02:27:27.211Z,1.37
2018-12-24T02:30:30.441Z,1.70
2018-12-24T02:35:55.163Z,1.30
2018-12-24T02:38:46.706Z,0.80
2018-12-24T02:41:37.132Z,0.40
2018-12-24T02:47:13.036Z,1.70
2018-12-24T02:50:03.795Z,0.30
2018-12-24T02:52:54.648Z,0.77
2018-12-24T02:55:45.703Z,0.40
2018-12-24T02:58:18.015Z,0.70
2018-12-24T03:01:11.004Z,1.03
2018-12-24T03:03:42.826Z,0.60
2018-12-24T03:06:39.763Z,1.17
2018-12-24T03:09:33.026Z,4.00
2018-12-24T03:12:06.012Z,0.50
2018-12-24T03:14:57.562Z,0.77
2018-12-24T03:17:29.777Z,1.00
2018-12-24T03:20:07.648Z,0.70
2018-12-24T03:22:40.275Z,0.77
2018-12-24T03:25:43.340Z,0.60
2018-12-24T03:31:15.894Z,0.93
2018-12-24T03:33:48.075Z,0.70
2018-12-24T03:36:20.295Z,0.50
2018-12-24T03:38:52.184Z,1.13
2018-12-24T03:44:54.283Z,0.70
2018-12-24T03:47:26.346Z,0.87
2018-12-24T03:53:32.115Z,0.87
2018-12-24T03:56:39.932Z,5.23
2018-12-24T03:59:12.418Z,1.10
2018-12-24T04:04:44.480Z,2.30
2018-12-24T04:07:26.831Z,2.67
2018-12-24T04:13:09.079Z,1.10
2018-12-24T04:16:00.833Z,0.63
2018-12-24T04:18:32.894Z,0.70
2018-12-24T04:21:23.314Z,1.27
2018-12-24T04:23:56.465Z,1.00
2018-12-24T04:26:28.730Z,2.20
2018-12-24T04:29:28.941Z,1.10
2018-12-24T04:31:45.030Z,1.07
2018-12-24T04:34:17.823Z,1.20
2018-12-24T04:36:49.804Z,1.40
2018-12-24T04:39:40.238Z,1.40
2018-12-24T04:42:12.373Z,2.00
2018-12-24T04:44:44.585Z,1.47
2018-12-24T04:47:18.548Z,1.37
2018-12-24T04:49:50.284Z,1.70
2018-12-24T04:52:22.269Z,2.47
2018-12-24T04:57:53.637Z,1.87
2018-12-24T05:07:03.637Z,1.63
2018-12-24T05:09:46.404Z,1.80
2018-12-24T05:12:36.825Z,1.70
2018-12-24T05:18:25.893Z,1.40
2018-12-24T05:21:00.246Z,3.63
2018-12-24T05:23:51.327Z,1.60
2018-12-24T05:29:37.848Z,1.80
2018-12-24T05:32:09.637Z,1.50
2018-12-24T05:34:42.893Z,1.43
2018-12-24T05:37:16.224Z,1.30
2018-12-24T05:39:58.603Z,1.20
2018-12-24T05:45:33.805Z,1.90
2018-12-24T05:48:24.709Z,1.57
2018-12-24T05:51:41.619Z,0.90
2018-12-24T05:54:32.734Z,0.87
2018-12-24T05:57:26.550Z,0.80
2018-12-24T06:00:38.696Z,1.30
2018-12-24T06:03:29.382Z,1.17
2018-12-24T06:06:01.574Z,1.37
2018-12-24T06:08:33.988Z,1.20
2018-12-24T06:11:25.685Z,1.40
2018-12-24T06:14:08.764Z,1.10
2018-12-24T06:16:51.934Z,1.23
2018-12-24T06:19:34.314Z,2.13
2018-12-24T06:22:07.437Z,1.83
2018-12-24T06:28:23.557Z,2.43
2018-12-24T06:31:18.095Z,2.30
2018-12-24T06:33:50.623Z,2.43
2018-12-24T06:37:09.498Z,2.37
2018-12-24T06:43:41.459Z,2.67
2018-12-24T06:46:34.451Z,3.20
2018-12-24T06:49:25.232Z,3.53
2018-12-24T06:52:43.126Z,3.40
2018-12-24T06:55:36.366Z,4.07
2018-12-24T07:03:43.417Z,4.33
2018-12-24T07:10:07.443Z,3.80
2018-12-24T07:12:47.269Z,5.10
2018-12-24T07:15:21.110Z,7.40
2018-12-24T07:18:13.321Z,5.87
2018-12-24T07:21:26.888Z,4.73
2018-12-24T07:24:19.770Z,4.30
2018-12-24T07:26:52.337Z,4.00
2018-12-24T07:29:25.937Z,5.77
2018-12-24T07:32:20.657Z,3.67
2018-12-24T07:38:15.425Z,3.80
2018-12-24T07:41:06.095Z,4.33
2018-12-24T07:44:24.226Z,3.97
2018-12-24T07:47:13.078Z,3.13
2018-12-24T07:53:35.362Z,2.10
2018-12-24T07:57:04.522Z,2.87
2018-12-24T08:00:10.048Z,1.87
2018-12-24T08:03:00.396Z,2.37
2018-12-24T08:05:51.948Z,2.80
2018-12-24T08:09:01.727Z,2.03
2018-12-24T08:19:30.560Z,3.03
2018-12-24T08:36:34.042Z,3.23
2018-12-24T08:39:10.989Z,2.03
2018-12-24T08:41:46.059Z,1.87
2018-12-24T08:44:25.310Z,1.57
2018-12-24T08:46:57.285Z,1.90
2018-12-24T08:49:35.347Z,2.23
2018-12-24T08:52:30.599Z,1.60
2018-12-24T08:55:31.180Z,2.40
2018-12-24T08:58:22.671Z,1.70
2018-12-24T09:04:11.200Z,3.17
2018-12-24T09:06:46.222Z,2.80
2018-12-24T09:13:19.198Z,3.53
2018-12-24T09:16:12.506Z,3.63
2018-12-24T09:18:45.880Z,5.00
2018-12-24T09:24:21.821Z,4.33
2018-12-24T09:27:13.907Z,3.67
2018-12-24T09:29:49.873Z,4.27
2018-12-24T09:35:31.089Z,5.13
2018-12-24T09:38:04.421Z,4.23
2018-12-24T09:40:56.167Z,4.20
2018-12-24T09:46:50.452Z,3.93
2018-12-24T09:49:33.658Z,4.63
2018-12-24T09:55:14.976Z,4.10
2018-12-24T09:58:11.438Z,4.20
2018-12-24T10:00:53.465Z,4.27
2018-12-24T10:03:48.627Z,4.27
2018-12-24T10:06:39.979Z,4.20
2018-12-24T10:09:22.279Z,4.80
2018-12-24T10:15:07.995Z,3.33
2018-12-24T10:17:35.900Z,3.53
2018-12-24T10:20:13.560Z,3.77
2018-12-24T10:23:04.457Z,3.40
2018-12-24T10:25:55.353Z,2.27
2018-12-24T10:28:48.011Z,2.37
2018-12-24T10:31:20.848Z,2.20
2018-12-24T10:34:18.348Z,4.83
2018-12-24T10:38:30.365Z,1.90
2018-12-24T10:41:11.981Z,2.10
2018-12-24T10:43:55.504Z,2.60
2018-12-24T10:46:28.151Z,2.10
2018-12-24T10:49:00.597Z,2.80
2018-12-24T10:51:52.001Z,2.63
2018-12-24T10:54:23.874Z,2.60
2018-12-24T10:56:55.877Z,2.77
2018-12-24T10:59:47.768Z,2.90
2018-12-24T11:02:37.997Z,3.67
2018-12-24T11:05:29.189Z,3.37
2018-12-24T11:08:03.276Z,4.80
2018-12-24T11:10:37.576Z,4.37
2018-12-24T11:13:30.043Z,3.93
2018-12-24T11:16:35.489Z,3.87
2018-12-24T11:22:03.020Z,5.17
2018-12-24T11:24:51.459Z,3.60
2018-12-24T11:30:29.597Z,5.67
2018-12-24T11:33:21.318Z,3.47
2018-12-24T11:36:47.679Z,3.53
2018-12-24T11:39:40.780Z,4.13
2018-12-24T11:42:49.711Z,4.20
2018-12-24T11:51:29.380Z,4.13
2018-12-24T11:56:58.192Z,4.23
2018-12-24T11:59:30.346Z,4.10
2018-12-24T12:02:09.754Z,5.50
2018-12-24T12:04:35.110Z,5.77
2018-12-24T12:07:25.641Z,4.97
2018-12-24T12:09:57.403Z,5.67
2018-12-24T12:12:48.130Z,5.20
2018-12-24T12:15:21.728Z,6.50
2018-12-24T12:21:25.374Z,8.23
2018-12-24T12:23:56.879Z,6.90
2018-12-24T12:26:30.357Z,6.43
2018-12-24T12:29:02.295Z,7.00
2018-12-24T12:31:34.669Z,6.70
2018-12-24T12:34:06.332Z,5.53
2018-12-24T12:36:58.047Z,5.37
2018-12-24T12:39:48.228Z,5.57
2018-12-24T12:42:22.877Z,7.53
2018-12-24T12:47:50.750Z,7.17
2018-12-24T12:50:59.944Z,5.37
2018-12-24T12:53:32.260Z,3.40
2018-12-24T12:56:05.109Z,3.47
2018-12-24T13:01:58.036Z,3.63
2018-12-24T13:04:29.738Z,3.47
2018-12-24T13:07:00.928Z,4.30
2018-12-24T13:13:06.576Z,5.80
2018-12-24T13:15:37.848Z,4.37
2018-12-24T13:18:28.116Z,6.47
2018-12-24T13:23:56.942Z,5.17
2018-12-24T13:27:24.798Z,4.10
2018-12-24T13:29:56.068Z,4.33
2018-12-24T13:32:46.341Z,6.03
2018-12-24T13:39:17.641Z,3.83
2018-12-24T13:41:48.919Z,3.10
2018-12-24T13:44:19.918Z,2.93
2018-12-24T13:47:11.073Z,2.30
2018-12-24T13:50:01.122Z,2.00
2018-12-24T13:52:33.586Z,4.03
2018-12-24T13:55:25.252Z,3.13
2018-12-24T13:57:56.940Z,2.57
2018-12-24T14:04:10.757Z,3.77
2018-12-24T14:09:35.952Z,3.83
2018-12-24T14:12:07.652Z,3.50
2018-12-24T14:14:39.168Z,4.67
2018-12-24T14:17:10.329Z,3.63
2018-12-24T14:19:50.929Z,4.50
2018-12-24T14:22:22.477Z,3.70
2018-12-24T14:25:13.003Z,3.60
2018-12-24T14:27:44.883Z,3.33
2018-12-24T14:30:16.289Z,3.80
2018-12-24T14:32:47.493Z,3.83
2018-12-24T14:35:20.167Z,4.33
2018-12-24T14:38:10.197Z,4.70
2018-12-24T14:43:38.762Z,7.03
2018-12-24T14:46:10.042Z,4.77
2018-12-24T14:49:03.260Z,5.03
2018-12-24T14:55:02.532Z,5.70
2018-12-24T15:00:43.148Z,6.10
2018-12-24T15:03:33.599Z,5.53
2018-12-24T15:06:05.109Z,4.63
2018-12-24T15:08:58.692Z,5.73
2018-12-24T15:11:49.403Z,6.70
2018-12-24T15:14:31.362Z,5.73
2018-12-24T15:17:12.823Z,8.10
2018-12-24T15:19:44.600Z,8.30
2018-12-24T15:22:34.550Z,6.43
2018-12-24T15:25:24.997Z,7.90
2018-12-24T15:28:15.302Z,6.90
2018-12-24T15:33:49.188Z,6.83
2018-12-24T15:36:40.430Z,8.00
2018-12-24T15:39:13.155Z,8.43
2018-12-24T15:42:06.437Z,6.20
2018-12-24T15:44:39.596Z,7.63
2018-12-24T15:47:10.894Z,7.77
2018-12-24T15:50:05.627Z,4.93
2018-12-24T15:52:56.220Z,5.47
2018-12-24T15:55:28.428Z,4.30
2018-12-24T16:01:03.119Z,6.47
2018-12-24T16:03:37.149Z,4.87
2018-12-24T16:06:09.612Z,5.27
2018-12-24T16:09:19.889Z,5.30
2018-12-24T16:12:10.371Z,5.43
2018-12-24T16:15:00.901Z,6.17
2018-12-24T16:18:13.986Z,5.47
2018-12-24T16:20:53.791Z,7.07
2018-12-24T16:24:03.370Z,5.37
2018-12-24T16:26:53.981Z,6.13
2018-12-24T16:29:38.123Z,7.10
2018-12-24T16:35:52.171Z,8.70
2018-12-24T16:38:44.104Z,9.17
2018-12-24T16:41:33.027Z,7.47
2018-12-24T16:44:04.667Z,8.77
2018-12-24T16:47:17.750Z,7.10
2018-12-24T16:50:10.117Z,7.67
2018-12-24T16:52:45.135Z,8.87
2018-12-24T16:55:51.830Z,9.90
2018-12-24T16:58:34.138Z,9.20
2018-12-24T17:01:06.202Z,8.93
2018-12-24T17:03:57.210Z,7.07
2018-12-24T17:06:31.882Z,7.93
2018-12-24T17:09:05.163Z,9.70
2018-12-24T17:11:39.667Z,7.73
2018-12-24T17:17:20.547Z,8.23
2018-12-24T17:23:12.951Z,9.43
2018-12-24T17:26:16.399Z,10.77
2018-12-24T17:31:49.001Z,8.50
2018-12-24T17:34:23.758Z,10.77
2018-12-24T17:37:29.382Z,11.23
2018-12-24T17:40:48.566Z,8.77
2018-12-24T17:43:20.542Z,8.60
2018-12-24T17:46:48.167Z,8.47
2018-12-24T17:49:39.119Z,8.23
2018-12-24T17:55:30.328Z,8.50
2018-12-24T17:58:20.912Z,9.50
2018-12-24T18:00:53.069Z,9.07
2018-12-24T18:03:28.512Z,10.97
2018-12-24T18:06:17.647Z,11.83
2018-12-24T18:09:09.037Z,12.33
2018-12-24T18:14:52.291Z,10.53
2018-12-24T18:17:25.136Z,9.77
2018-12-24T18:20:17.365Z,12.43
2018-12-24T18:23:42.389Z,15.23
2018-12-24T18:26:16.812Z,10.43
2018-12-24T18:29:12.682Z,13.60
2018-12-24T18:32:01.079Z,9.83
2018-12-24T18:38:34.233Z,13.00
2018-12-24T18:41:09.016Z,11.93
2018-12-24T18:43:44.612Z,11.90
2018-12-24T18:46:36.345Z,12.60
2018-12-24T18:49:49.037Z,11.37
2018-12-24T18:52:45.348Z,10.13
2018-12-24T18:55:35.744Z,11.67
2018-12-24T18:58:27.801Z,10.27
2018-12-24T19:01:36.645Z,11.37
2018-12-24T19:04:28.161Z,12.93
2018-12-24T19:07:21.220Z,11.23
2018-12-24T19:16:35.591Z,11.73
2018-12-24T19:19:21.614Z,10.17
2018-12-24T19:22:12.062Z,12.73
2018-12-24T19:25:33.131Z,9.87
2018-12-24T19:28:10.291Z,10.63
2018-12-24T19:30:43.993Z,10.63
2018-12-24T19:33:39.425Z,10.13
2018-12-24T19:39:55.040Z,11.57
2018-12-24T19:42:52.230Z,14.43
2018-12-24T19:45:45.825Z,12.77
2018-12-24T19:48:19.084Z,11.60
2018-12-24T19:54:24.529Z,14.20
2018-12-24T19:57:16.860Z,18.50
2018-12-24T20:00:08.991Z,15.43
2018-12-24T20:33:47.777Z,9.87
2018-12-24T20:42:24.407Z,7.70
2018-12-24T20:49:01.212Z,7.50
2018-12-24T20:51:48.368Z,6.00
2018-12-24T20:57:24.033Z,8.27
2018-12-24T20:59:58.141Z,6.10
2018-12-24T21:02:51.791Z,6.17
2018-12-24T21:05:29.000Z,5.93
2018-12-24T21:08:08.195Z,7.20
2018-12-24T21:13:49.551Z,8.30
2018-12-24T21:28:39.122Z,10.80
2018-12-24T21:52:56.631Z,10.40
2018-12-24T21:59:45.231Z,9.77
2018-12-24T22:21:45.050Z,10.47
2018-12-24T22:34:58.963Z,11.83
2018-12-24T23:09:19.621Z,9.67
2018-12-24T23:18:23.139Z,9.47
2018-12-24T23:27:25.959Z,12.50
2018-12-24T23:44:05.600Z,11.33
2018-12-24T23:46:57.029Z,19.90
2018-12-24T23:49:52.191Z,13.10
2018-12-24T23:55:53.299Z,10.80
2018-12-24T23:58:30.281Z,10.33
